sensor_id;sensor_type;location;lat;lon;timestamp;P1;durP1;ratioP1;P2;durP2;ratioP2
85131;SDS011;75493;51.772;19.464;2024-01-15T00:02:08;13.48;;;7.43;;
85131;SDS011;75493;51.772;19.464;2024-01-15T00:04:37;14.55;;;8.00;;
85131;SDS011;75493;51.772;19.464;2024-01-15T00:07:04;16.27;;;8.48;;
85131;SDS011;75493;51.772;19.464;2024-01-15T00:09:30;13.52;;;6.97;;
85131;SDS011;75493;51.772;19.464;2024-01-15T00:11:55;14.05;;;7.50;;
85131;SDS011;75493;51.772;19.464;2024-01-15T00:14:22;14.82;;;7.57;;
85131;SDS011;75493;51.772;19.464;2024-01-15T00:16:48;15.52;;;7.45;;
85131;SDS011;75493;51.772;19.464;2024-01-15T00:19:16;13.63;;;7.35;;
85131;SDS011;75493;51.772;19.464;2024-01-15T00:21:42;14.00;;;7.70;;
85131;SDS011;75493;51.772;19.464;2024-01-15T00:24:08;12.90;;;6.95;;
85131;SDS011;75493;51.772;19.464;2024-01-15T00:26:34;14.95;;;7.28;;
85131;SDS011;75493;51.772;19.464;2024-01-15T00:29:00;13.35;;;7.82;;
85131;SDS011;75493;51.772;19.464;2024-01-15T00:31:26;14.90;;;8.45;;
85131;SDS011;75493;51.772;19.464;2024-01-15T00:33:52;16.23;;;8.13;;
85131;SDS011;75493;51.772;19.464;2024-01-15T00:36:18;12.88;;;7.43;;
85131;SDS011;75493;51.772;19.464;2024-01-15T00:38:44;13.45;;;6.95;;
85131;SDS011;75493;51.772;19.464;2024-01-15T00:41:12;14.05;;;8.38;;
85131;SDS011;75493;51.772;19.464;2024-01-15T00:43:38;15.98;;;8.25;;
85131;SDS011;75493;51.772;19.464;2024-01-15T00:46:04;15.10;;;8.15;;
85131;SDS011;75493;51.772;19.464;2024-01-15T00:48:30;13.60;;;7.20;;
85131;SDS011;75493;51.772;19.464;2024-01-15T00:50:56;12.35;;;7.15;;
85131;SDS011;75493;51.772;19.464;2024-01-15T00:53:22;16.27;;;7.78;;
85131;SDS011;75493;51.772;19.464;2024-01-15T00:55:48;13.93;;;7.63;;
85131;SDS011;75493;51.772;19.464;2024-01-15T00:58:14;15.00;;;7.60;;
85131;SDS011;75493;51.772;19.464;2024-01-15T01:00:41;13.73;;;7.93;;
85131;SDS011;75493;51.772;19.464;2024-01-15T01:03:07;13.13;;;7.50;;
85131;SDS011;75493;51.772;19.464;2024-01-15T01:05:33;14.43;;;8.07;;
85131;SDS011;75493;51.772;19.464;2024-01-15T01:07:59;15.30;;;7.25;;
85131;SDS011;75493;51.772;19.464;2024-01-15T01:10:26;11.43;;;6.75;;
85131;SDS011;75493;51.772;19.464;2024-01-15T01:12:52;14.88;;;8.32;;
85131;SDS011;75493;51.772;19.464;2024-01-15T01:15:18;14.50;;;7.60;;
85131;SDS011;75493;51.772;19.464;2024-01-15T01:17:44;13.15;;;7.15;;
85131;SDS011;75493;51.772;19.464;2024-01-15T01:20:10;12.77;;;6.72;;
85131;SDS011;75493;51.772;19.464;2024-01-15T01:22:36;14.73;;;6.88;;
85131;SDS011;75493;51.772;19.464;2024-01-15T01:25:02;13.18;;;7.55;;
85131;SDS011;75493;51.772;19.464;2024-01-15T01:27:28;12.25;;;7.07;;
85131;SDS011;75493;51.772;19.464;2024-01-15T01:29:54;13.13;;;6.82;;
85131;SDS011;75493;51.772;19.464;2024-01-15T01:32:20;13.18;;;6.90;;
85131;SDS011;75493;51.772;19.464;2024-01-15T01:34:46;16.10;;;7.72;;
85131;SDS011;75493;51.772;19.464;2024-01-15T01:37:12;15.55;;;7.70;;
85131;SDS011;75493;51.772;19.464;2024-01-15T01:39:41;11.40;;;6.43;;
85131;SDS011;75493;51.772;19.464;2024-01-15T01:42:08;11.63;;;6.03;;
85131;SDS011;75493;51.772;19.464;2024-01-15T01:44:34;13.55;;;6.97;;
85131;SDS011;75493;51.772;19.464;2024-01-15T01:47:00;13.88;;;7.53;;
85131;SDS011;75493;51.772;19.464;2024-01-15T01:49:29;12.70;;;7.30;;
85131;SDS011;75493;51.772;19.464;2024-01-15T01:51:56;13.25;;;6.97;;
85131;SDS011;75493;51.772;19.464;2024-01-15T01:54:23;14.00;;;7.00;;
85131;SDS011;75493;51.772;19.464;2024-01-15T01:56:49;12.13;;;6.75;;
85131;SDS011;75493;51.772;19.464;2024-01-15T01:59:16;14.45;;;6.97;;
85131;SDS011;75493;51.772;19.464;2024-01-15T02:01:42;12.98;;;6.28;;
85131;SDS011;75493;51.772;19.464;2024-01-15T02:04:10;14.07;;;6.57;;
85131;SDS011;75493;51.772;19.464;2024-01-15T02:06:36;11.25;;;5.75;;
85131;SDS011;75493;51.772;19.464;2024-01-15T02:09:03;14.20;;;6.97;;
85131;SDS011;75493;51.772;19.464;2024-01-15T02:11:30;11.68;;;6.60;;
85131;SDS011;75493;51.772;19.464;2024-01-15T02:13:56;14.60;;;6.78;;
85131;SDS011;75493;51.772;19.464;2024-01-15T02:16:22;12.93;;;6.82;;
85131;SDS011;75493;51.772;19.464;2024-01-15T02:18:48;13.57;;;6.95;;
85131;SDS011;75493;51.772;19.464;2024-01-15T02:21:14;11.80;;;7.03;;
85131;SDS011;75493;51.772;19.464;2024-01-15T02:23:40;12.85;;;7.35;;
85131;SDS011;75493;51.772;19.464;2024-01-15T02:26:06;10.55;;;6.30;;
85131;SDS011;75493;51.772;19.464;2024-01-15T02:28:32;9.65;;;5.85;;
85131;SDS011;75493;51.772;19.464;2024-01-15T02:30:58;14.48;;;6.32;;
85131;SDS011;75493;51.772;19.464;2024-01-15T02:33:24;12.88;;;6.05;;
85131;SDS011;75493;51.772;19.464;2024-01-15T02:35:50;12.05;;;7.13;;
85131;SDS011;75493;51.772;19.464;2024-01-15T02:38:16;12.63;;;7.28;;
85131;SDS011;75493;51.772;19.464;2024-01-15T02:40:46;13.57;;;7.18;;
85131;SDS011;75493;51.772;19.464;2024-01-15T02:43:12;12.05;;;6.80;;
85131;SDS011;75493;51.772;19.464;2024-01-15T02:45:39;14.02;;;7.53;;
85131;SDS011;75493;51.772;19.464;2024-01-15T02:48:05;13.93;;;7.05;;
85131;SDS011;75493;51.772;19.464;2024-01-15T02:50:31;16.55;;;7.70;;
85131;SDS011;75493;51.772;19.464;2024-01-15T02:52:57;13.38;;;7.10;;
85131;SDS011;75493;51.772;19.464;2024-01-15T02:55:23;13.77;;;7.80;;
85131;SDS011;75493;51.772;19.464;2024-01-15T02:57:49;13.50;;;7.57;;
85131;SDS011;75493;51.772;19.464;2024-01-15T03:00:15;11.10;;;6.85;;
85131;SDS011;75493;51.772;19.464;2024-01-15T03:02:41;13.05;;;7.47;;
85131;SDS011;75493;51.772;19.464;2024-01-15T03:05:10;13.90;;;6.75;;
85131;SDS011;75493;51.772;19.464;2024-01-15T03:07:36;11.88;;;7.07;;
85131;SDS011;75493;51.772;19.464;2024-01-15T03:10:02;12.38;;;7.15;;
85131;SDS011;75493;51.772;19.464;2024-01-15T03:12:28;12.30;;;6.63;;
85131;SDS011;75493;51.772;19.464;2024-01-15T03:14:54;14.55;;;6.88;;
85131;SDS011;75493;51.772;19.464;2024-01-15T03:17:20;14.88;;;7.18;;
85131;SDS011;75493;51.772;19.464;2024-01-15T03:19:45;13.45;;;6.85;;
85131;SDS011;75493;51.772;19.464;2024-01-15T03:22:11;13.38;;;7.18;;
85131;SDS011;75493;51.772;19.464;2024-01-15T03:24:37;13.95;;;7.05;;
85131;SDS011;75493;51.772;19.464;2024-01-15T03:27:03;12.40;;;6.55;;
85131;SDS011;75493;51.772;19.464;2024-01-15T03:29:29;13.00;;;6.60;;
85131;SDS011;75493;51.772;19.464;2024-01-15T03:31:55;11.85;;;6.43;;
85131;SDS011;75493;51.772;19.464;2024-01-15T03:34:21;12.35;;;6.80;;
85131;SDS011;75493;51.772;19.464;2024-01-15T03:36:47;13.50;;;6.35;;
85131;SDS011;75493;51.772;19.464;2024-01-15T03:39:13;13.23;;;7.25;;
85131;SDS011;75493;51.772;19.464;2024-01-15T03:41:39;11.80;;;6.60;;
85131;SDS011;75493;51.772;19.464;2024-01-15T03:44:05;10.90;;;6.25;;
85131;SDS011;75493;51.772;19.464;2024-01-15T03:46:31;11.85;;;6.38;;
85131;SDS011;75493;51.772;19.464;2024-01-15T03:48:57;15.10;;;6.80;;
85131;SDS011;75493;51.772;19.464;2024-01-15T03:51:24;15.77;;;7.53;;
85131;SDS011;75493;51.772;19.464;2024-01-15T03:53:50;11.75;;;6.75;;
85131;SDS011;75493;51.772;19.464;2024-01-15T03:56:16;13.32;;;6.55;;
85131;SDS011;75493;51.772;19.464;2024-01-15T03:58:42;12.18;;;7.07;;
85131;SDS011;75493;51.772;19.464;2024-01-15T04:01:11;12.15;;;6.72;;
85131;SDS011;75493;51.772;19.464;2024-01-15T04:03:37;12.73;;;6.82;;
85131;SDS011;75493;51.772;19.464;2024-01-15T04:06:03;14.02;;;7.55;;
85131;SDS011;75493;51.772;19.464;2024-01-15T04:08:29;12.77;;;7.70;;
85131;SDS011;75493;51.772;19.464;2024-01-15T04:10:55;31.17;;;21.02;;
85131;SDS011;75493;51.772;19.464;2024-01-15T04:13:21;142.35;;;88.43;;
85131;SDS011;75493;51.772;19.464;2024-01-15T04:15:47;219.18;;;140.30;;
85131;SDS011;75493;51.772;19.464;2024-01-15T04:18:15;320.52;;;178.70;;
85131;SDS011;75493;51.772;19.464;2024-01-15T04:20:41;393.08;;;241.80;;
85131;SDS011;75493;51.772;19.464;2024-01-15T04:23:07;211.88;;;139.52;;
85131;SDS011;75493;51.772;19.464;2024-01-15T04:25:33;34.60;;;25.58;;
85131;SDS011;75493;51.772;19.464;2024-01-15T04:27:59;16.30;;;9.77;;
85131;SDS011;75493;51.772;19.464;2024-01-15T04:30:25;14.80;;;8.88;;
85131;SDS011;75493;51.772;19.464;2024-01-15T04:32:51;11.90;;;7.32;;
85131;SDS011;75493;51.772;19.464;2024-01-15T04:35:17;12.80;;;6.55;;
85131;SDS011;75493;51.772;19.464;2024-01-15T04:37:43;12.48;;;6.95;;
85131;SDS011;75493;51.772;19.464;2024-01-15T04:40:09;73.88;;;39.78;;
85131;SDS011;75493;51.772;19.464;2024-01-15T04:42:35;532.95;;;277.70;;
85131;SDS011;75493;51.772;19.464;2024-01-15T04:45:01;481.80;;;252.45;;
85131;SDS011;75493;51.772;19.464;2024-01-15T04:47:27;348.13;;;201.10;;
85131;SDS011;75493;51.772;19.464;2024-01-15T04:49:53;236.02;;;164.43;;
85131;SDS011;75493;51.772;19.464;2024-01-15T04:52:19;81.93;;;60.65;;
85131;SDS011;75493;51.772;19.464;2024-01-15T04:54:45;21.70;;;13.20;;
85131;SDS011;75493;51.772;19.464;2024-01-15T04:57:11;13.50;;;8.40;;
85131;SDS011;75493;51.772;19.464;2024-01-15T04:59:37;12.93;;;7.95;;
85131;SDS011;75493;51.772;19.464;2024-01-15T05:02:03;12.88;;;7.35;;
85131;SDS011;75493;51.772;19.464;2024-01-15T05:04:28;12.13;;;6.78;;
85131;SDS011;75493;51.772;19.464;2024-01-15T05:06:55;12.68;;;7.20;;
85131;SDS011;75493;51.772;19.464;2024-01-15T05:09:21;24.75;;;15.10;;
85131;SDS011;75493;51.772;19.464;2024-01-15T05:11:47;20.38;;;13.13;;
85131;SDS011;75493;51.772;19.464;2024-01-15T05:14:12;92.93;;;55.25;;
85131;SDS011;75493;51.772;19.464;2024-01-15T05:16:39;117.05;;;75.07;;
85131;SDS011;75493;51.772;19.464;2024-01-15T05:19:06;106.75;;;76.38;;
85131;SDS011;75493;51.772;19.464;2024-01-15T05:21:32;58.63;;;46.72;;
85131;SDS011;75493;51.772;19.464;2024-01-15T05:23:58;28.27;;;18.65;;
85131;SDS011;75493;51.772;19.464;2024-01-15T05:26:24;21.55;;;11.88;;
85131;SDS011;75493;51.772;19.464;2024-01-15T05:28:50;14.25;;;8.65;;
85131;SDS011;75493;51.772;19.464;2024-01-15T05:31:16;14.15;;;8.27;;
85131;SDS011;75493;51.772;19.464;2024-01-15T05:33:42;14.85;;;7.82;;
85131;SDS011;75493;51.772;19.464;2024-01-15T05:36:08;14.60;;;8.85;;
85131;SDS011;75493;51.772;19.464;2024-01-15T05:38:34;14.80;;;8.35;;
85131;SDS011;75493;51.772;19.464;2024-01-15T05:41:00;12.90;;;7.97;;
85131;SDS011;75493;51.772;19.464;2024-01-15T05:43:25;14.13;;;7.53;;
85131;SDS011;75493;51.772;19.464;2024-01-15T05:45:51;13.13;;;7.70;;
85131;SDS011;75493;51.772;19.464;2024-01-15T05:48:17;13.73;;;7.75;;
85131;SDS011;75493;51.772;19.464;2024-01-15T05:50:43;12.45;;;7.88;;
85131;SDS011;75493;51.772;19.464;2024-01-15T05:53:09;14.45;;;7.45;;
85131;SDS011;75493;51.772;19.464;2024-01-15T05:55:36;14.95;;;7.25;;
85131;SDS011;75493;51.772;19.464;2024-01-15T05:58:03;12.75;;;7.13;;
85131;SDS011;75493;51.772;19.464;2024-01-15T06:00:29;15.57;;;7.60;;
85131;SDS011;75493;51.772;19.464;2024-01-15T06:02:55;13.60;;;7.30;;
85131;SDS011;75493;51.772;19.464;2024-01-15T06:05:21;12.90;;;7.20;;
85131;SDS011;75493;51.772;19.464;2024-01-15T06:07:47;13.18;;;7.55;;
85131;SDS011;75493;51.772;19.464;2024-01-15T06:10:13;12.88;;;6.63;;
85131;SDS011;75493;51.772;19.464;2024-01-15T06:12:39;13.82;;;7.38;;
85131;SDS011;75493;51.772;19.464;2024-01-15T06:15:05;14.75;;;7.15;;
85131;SDS011;75493;51.772;19.464;2024-01-15T06:17:31;13.23;;;7.18;;
85131;SDS011;75493;51.772;19.464;2024-01-15T06:19:57;14.65;;;8.30;;
85131;SDS011;75493;51.772;19.464;2024-01-15T06:22:23;15.13;;;8.18;;
85131;SDS011;75493;51.772;19.464;2024-01-15T06:24:49;15.80;;;7.53;;
85131;SDS011;75493;51.772;19.464;2024-01-15T06:27:15;12.75;;;7.53;;
85131;SDS011;75493;51.772;19.464;2024-01-15T06:29:44;17.90;;;8.27;;
85131;SDS011;75493;51.772;19.464;2024-01-15T06:32:11;14.52;;;8.77;;
85131;SDS011;75493;51.772;19.464;2024-01-15T06:34:37;14.90;;;8.65;;
85131;SDS011;75493;51.772;19.464;2024-01-15T06:37:03;18.27;;;9.68;;
85131;SDS011;75493;51.772;19.464;2024-01-15T06:39:29;16.58;;;8.82;;
85131;SDS011;75493;51.772;19.464;2024-01-15T06:41:55;15.18;;;8.73;;
85131;SDS011;75493;51.772;19.464;2024-01-15T06:44:21;15.52;;;8.68;;
85131;SDS011;75493;51.772;19.464;2024-01-15T06:46:47;16.85;;;8.82;;
85131;SDS011;75493;51.772;19.464;2024-01-15T06:49:13;16.52;;;8.25;;
85131;SDS011;75493;51.772;19.464;2024-01-15T06:51:39;13.40;;;7.93;;
85131;SDS011;75493;51.772;19.464;2024-01-15T06:54:05;17.92;;;8.85;;
85131;SDS011;75493;51.772;19.464;2024-01-15T06:56:31;18.52;;;8.80;;
85131;SDS011;75493;51.772;19.464;2024-01-15T06:58:57;17.20;;;7.97;;
85131;SDS011;75493;51.772;19.464;2024-01-15T07:01:23;15.45;;;8.27;;
85131;SDS011;75493;51.772;19.464;2024-01-15T07:03:49;16.38;;;7.55;;
85131;SDS011;75493;51.772;19.464;2024-01-15T07:06:15;13.73;;;7.78;;
85131;SDS011;75493;51.772;19.464;2024-01-15T07:08:42;19.92;;;9.13;;
85131;SDS011;75493;51.772;19.464;2024-01-15T07:11:08;17.27;;;8.93;;
85131;SDS011;75493;51.772;19.464;2024-01-15T07:13:34;14.70;;;7.68;;
85131;SDS011;75493;51.772;19.464;2024-01-15T07:16:01;14.18;;;8.55;;
85131;SDS011;75493;51.772;19.464;2024-01-15T07:18:27;15.40;;;8.57;;
85131;SDS011;75493;51.772;19.464;2024-01-15T07:20:53;19.90;;;8.55;;
85131;SDS011;75493;51.772;19.464;2024-01-15T07:23:19;15.13;;;7.72;;
85131;SDS011;75493;51.772;19.464;2024-01-15T07:25:45;14.45;;;7.07;;
85131;SDS011;75493;51.772;19.464;2024-01-15T07:28:11;12.68;;;6.65;;
85131;SDS011;75493;51.772;19.464;2024-01-15T07:30:37;13.60;;;7.38;;
85131;SDS011;75493;51.772;19.464;2024-01-15T07:33:04;11.13;;;6.57;;
85131;SDS011;75493;51.772;19.464;2024-01-15T07:35:30;13.18;;;6.80;;
85131;SDS011;75493;51.772;19.464;2024-01-15T07:37:56;15.40;;;6.68;;
85131;SDS011;75493;51.772;19.464;2024-01-15T07:40:22;11.60;;;6.78;;
85131;SDS011;75493;51.772;19.464;2024-01-15T07:42:49;14.77;;;6.57;;
85131;SDS011;75493;51.772;19.464;2024-01-15T07:45:15;12.10;;;5.97;;
85131;SDS011;75493;51.772;19.464;2024-01-15T07:47:41;12.98;;;6.03;;
85131;SDS011;75493;51.772;19.464;2024-01-15T07:50:07;13.52;;;6.38;;
85131;SDS011;75493;51.772;19.464;2024-01-15T07:52:33;10.05;;;5.90;;
85131;SDS011;75493;51.772;19.464;2024-01-15T07:54:59;12.57;;;6.20;;
85131;SDS011;75493;51.772;19.464;2024-01-15T07:57:25;9.95;;;5.55;;
85131;SDS011;75493;51.772;19.464;2024-01-15T07:59:51;13.90;;;6.15;;
85131;SDS011;75493;51.772;19.464;2024-01-15T08:02:17;12.25;;;6.45;;
85131;SDS011;75493;51.772;19.464;2024-01-15T08:04:44;12.93;;;5.80;;
85131;SDS011;75493;51.772;19.464;2024-01-15T08:07:10;9.60;;;5.22;;
85131;SDS011;75493;51.772;19.464;2024-01-15T08:09:38;10.35;;;5.38;;
85131;SDS011;75493;51.772;19.464;2024-01-15T08:12:04;12.52;;;5.03;;
85131;SDS011;75493;51.772;19.464;2024-01-15T08:14:31;13.55;;;6.45;;
85131;SDS011;75493;51.772;19.464;2024-01-15T08:16:57;12.88;;;6.72;;
85131;SDS011;75493;51.772;19.464;2024-01-15T08:19:23;14.35;;;7.65;;
85131;SDS011;75493;51.772;19.464;2024-01-15T08:21:50;17.83;;;9.75;;
85131;SDS011;75493;51.772;19.464;2024-01-15T08:24:16;16.63;;;9.45;;
85131;SDS011;75493;51.772;19.464;2024-01-15T08:26:42;13.50;;;7.60;;
85131;SDS011;75493;51.772;19.464;2024-01-15T08:29:08;15.50;;;6.95;;
85131;SDS011;75493;51.772;19.464;2024-01-15T08:31:34;13.25;;;6.50;;
85131;SDS011;75493;51.772;19.464;2024-01-15T08:34:00;10.40;;;5.60;;
85131;SDS011;75493;51.772;19.464;2024-01-15T08:36:27;11.23;;;5.97;;
85131;SDS011;75493;51.772;19.464;2024-01-15T08:38:54;10.77;;;5.53;;
85131;SDS011;75493;51.772;19.464;2024-01-15T08:41:20;12.57;;;6.78;;
85131;SDS011;75493;51.772;19.464;2024-01-15T08:43:46;8.65;;;4.93;;
85131;SDS011;75493;51.772;19.464;2024-01-15T08:46:12;12.00;;;6.60;;
85131;SDS011;75493;51.772;19.464;2024-01-15T08:48:39;11.88;;;5.05;;
85131;SDS011;75493;51.772;19.464;2024-01-15T08:51:05;10.10;;;6.65;;
85131;SDS011;75493;51.772;19.464;2024-01-15T08:53:31;15.55;;;9.48;;
85131;SDS011;75493;51.772;19.464;2024-01-15T08:55:57;11.75;;;6.97;;
85131;SDS011;75493;51.772;19.464;2024-01-15T08:58:24;11.45;;;7.05;;
85131;SDS011;75493;51.772;19.464;2024-01-15T09:00:50;14.23;;;8.43;;
85131;SDS011;75493;51.772;19.464;2024-01-15T09:03:16;13.30;;;7.40;;
85131;SDS011;75493;51.772;19.464;2024-01-15T09:05:42;13.88;;;7.63;;
85131;SDS011;75493;51.772;19.464;2024-01-15T09:08:08;14.88;;;8.40;;
85131;SDS011;75493;51.772;19.464;2024-01-15T09:10:34;16.75;;;8.90;;
85131;SDS011;75493;51.772;19.464;2024-01-15T09:13:00;13.88;;;7.03;;
85131;SDS011;75493;51.772;19.464;2024-01-15T09:15:28;10.02;;;6.15;;
85131;SDS011;75493;51.772;19.464;2024-01-15T09:17:54;13.88;;;6.70;;
85131;SDS011;75493;51.772;19.464;2024-01-15T09:20:22;10.32;;;6.95;;
85131;SDS011;75493;51.772;19.464;2024-01-15T09:22:48;14.20;;;6.93;;
85131;SDS011;75493;51.772;19.464;2024-01-15T09:25:14;13.65;;;6.80;;
85131;SDS011;75493;51.772;19.464;2024-01-15T09:27:40;11.90;;;6.15;;
85131;SDS011;75493;51.772;19.464;2024-01-15T09:30:07;12.68;;;7.72;;
85131;SDS011;75493;51.772;19.464;2024-01-15T09:32:33;10.90;;;6.55;;
85131;SDS011;75493;51.772;19.464;2024-01-15T09:34:59;17.00;;;7.72;;
85131;SDS011;75493;51.772;19.464;2024-01-15T09:37:25;24.77;;;7.70;;
85131;SDS011;75493;51.772;19.464;2024-01-15T09:39:51;12.32;;;7.32;;
85131;SDS011;75493;51.772;19.464;2024-01-15T09:42:18;13.23;;;6.72;;
85131;SDS011;75493;51.772;19.464;2024-01-15T09:44:44;12.77;;;6.75;;
85131;SDS011;75493;51.772;19.464;2024-01-15T09:47:11;14.48;;;7.35;;
85131;SDS011;75493;51.772;19.464;2024-01-15T09:49:38;12.93;;;6.93;;
85131;SDS011;75493;51.772;19.464;2024-01-15T09:52:05;13.48;;;7.30;;
85131;SDS011;75493;51.772;19.464;2024-01-15T09:54:33;14.65;;;6.68;;
85131;SDS011;75493;51.772;19.464;2024-01-15T09:57:00;13.52;;;7.28;;
85131;SDS011;75493;51.772;19.464;2024-01-15T09:59:26;12.43;;;6.90;;
85131;SDS011;75493;51.772;19.464;2024-01-15T10:01:52;11.48;;;6.45;;
85131;SDS011;75493;51.772;19.464;2024-01-15T10:04:19;15.02;;;6.65;;
85131;SDS011;75493;51.772;19.464;2024-01-15T10:06:45;12.65;;;6.57;;
85131;SDS011;75493;51.772;19.464;2024-01-15T10:09:12;11.23;;;6.03;;
85131;SDS011;75493;51.772;19.464;2024-01-15T10:11:42;12.90;;;5.80;;
85131;SDS011;75493;51.772;19.464;2024-01-15T10:14:09;19.42;;;6.85;;
85131;SDS011;75493;51.772;19.464;2024-01-15T10:16:37;10.50;;;6.78;;
85131;SDS011;75493;51.772;19.464;2024-01-15T10:19:03;13.85;;;8.43;;
85131;SDS011;75493;51.772;19.464;2024-01-15T10:21:31;12.60;;;8.05;;
85131;SDS011;75493;51.772;19.464;2024-01-15T10:23:59;14.95;;;7.40;;
85131;SDS011;75493;51.772;19.464;2024-01-15T10:26:26;12.63;;;7.18;;
85131;SDS011;75493;51.772;19.464;2024-01-15T10:28:52;14.02;;;7.05;;
85131;SDS011;75493;51.772;19.464;2024-01-15T10:31:18;14.00;;;7.68;;
85131;SDS011;75493;51.772;19.464;2024-01-15T10:33:49;11.50;;;7.15;;
85131;SDS011;75493;51.772;19.464;2024-01-15T10:36:15;11.43;;;7.15;;
85131;SDS011;75493;51.772;19.464;2024-01-15T10:38:45;11.10;;;5.90;;
85131;SDS011;75493;51.772;19.464;2024-01-15T10:41:11;11.20;;;5.78;;
85131;SDS011;75493;51.772;19.464;2024-01-15T10:43:37;11.65;;;5.80;;
85131;SDS011;75493;51.772;19.464;2024-01-15T10:46:03;9.13;;;5.18;;
85131;SDS011;75493;51.772;19.464;2024-01-15T10:48:29;18.60;;;9.68;;
85131;SDS011;75493;51.772;19.464;2024-01-15T10:50:56;16.95;;;8.43;;
85131;SDS011;75493;51.772;19.464;2024-01-15T10:53:23;13.40;;;7.05;;
85131;SDS011;75493;51.772;19.464;2024-01-15T10:55:53;12.18;;;7.18;;
85131;SDS011;75493;51.772;19.464;2024-01-15T10:58:20;13.07;;;6.60;;
85131;SDS011;75493;51.772;19.464;2024-01-15T11:00:49;11.32;;;6.20;;
85131;SDS011;75493;51.772;19.464;2024-01-15T11:03:16;13.10;;;6.57;;
85131;SDS011;75493;51.772;19.464;2024-01-15T11:05:42;11.43;;;6.63;;
85131;SDS011;75493;51.772;19.464;2024-01-15T11:08:09;13.10;;;7.20;;
85131;SDS011;75493;51.772;19.464;2024-01-15T11:10:42;13.77;;;6.93;;
85131;SDS011;75493;51.772;19.464;2024-01-15T11:13:14;10.73;;;5.63;;
85131;SDS011;75493;51.772;19.464;2024-01-15T11:18:30;11.18;;;5.80;;
85131;SDS011;75493;51.772;19.464;2024-01-15T11:23:44;10.60;;;5.32;;
85131;SDS011;75493;51.772;19.464;2024-01-15T11:26:29;11.32;;;5.20;;
85131;SDS011;75493;51.772;19.464;2024-01-15T11:28:55;10.82;;;5.40;;
85131;SDS011;75493;51.772;19.464;2024-01-15T11:34:06;9.15;;;5.50;;
85131;SDS011;75493;51.772;19.464;2024-01-15T11:41:56;13.13;;;6.10;;
85131;SDS011;75493;51.772;19.464;2024-01-15T11:44:22;13.90;;;6.38;;
85131;SDS011;75493;51.772;19.464;2024-01-15T11:46:57;11.00;;;5.78;;
85131;SDS011;75493;51.772;19.464;2024-01-15T11:49:26;9.30;;;5.20;;
85131;SDS011;75493;51.772;19.464;2024-01-15T11:51:59;12.68;;;5.82;;
85131;SDS011;75493;51.772;19.464;2024-01-15T11:54:26;12.40;;;6.22;;
85131;SDS011;75493;51.772;19.464;2024-01-15T11:56:54;11.37;;;5.90;;
85131;SDS011;75493;51.772;19.464;2024-01-15T11:59:21;10.48;;;4.88;;
85131;SDS011;75493;51.772;19.464;2024-01-15T12:01:47;12.00;;;5.68;;
85131;SDS011;75493;51.772;19.464;2024-01-15T12:04:13;10.80;;;5.57;;
85131;SDS011;75493;51.772;19.464;2024-01-15T12:06:42;11.32;;;5.72;;
85131;SDS011;75493;51.772;19.464;2024-01-15T12:09:08;12.65;;;6.18;;
85131;SDS011;75493;51.772;19.464;2024-01-15T12:11:35;14.63;;;5.00;;
85131;SDS011;75493;51.772;19.464;2024-01-15T12:14:02;12.20;;;6.25;;
85131;SDS011;75493;51.772;19.464;2024-01-15T12:16:28;16.02;;;5.65;;
85131;SDS011;75493;51.772;19.464;2024-01-15T12:18:54;13.00;;;7.10;;
85131;SDS011;75493;51.772;19.464;2024-01-15T12:21:20;15.38;;;8.18;;
85131;SDS011;75493;51.772;19.464;2024-01-15T12:23:46;12.60;;;7.10;;
85131;SDS011;75493;51.772;19.464;2024-01-15T12:26:13;13.18;;;5.63;;
85131;SDS011;75493;51.772;19.464;2024-01-15T12:28:39;10.95;;;5.95;;
85131;SDS011;75493;51.772;19.464;2024-01-15T12:31:05;11.65;;;5.82;;
85131;SDS011;75493;51.772;19.464;2024-01-15T12:33:32;9.65;;;5.10;;
85131;SDS011;75493;51.772;19.464;2024-01-15T12:35:58;10.77;;;6.03;;
85131;SDS011;75493;51.772;19.464;2024-01-15T12:38:24;11.93;;;6.13;;
85131;SDS011;75493;51.772;19.464;2024-01-15T12:40:50;11.35;;;6.75;;
85131;SDS011;75493;51.772;19.464;2024-01-15T12:43:17;12.35;;;7.05;;
85131;SDS011;75493;51.772;19.464;2024-01-15T12:45:43;13.25;;;7.03;;
85131;SDS011;75493;51.772;19.464;2024-01-15T12:48:09;10.68;;;6.07;;
85131;SDS011;75493;51.772;19.464;2024-01-15T12:50:35;10.73;;;5.72;;
85131;SDS011;75493;51.772;19.464;2024-01-15T12:53:02;11.05;;;6.15;;
85131;SDS011;75493;51.772;19.464;2024-01-15T12:55:27;13.00;;;6.70;;
85131;SDS011;75493;51.772;19.464;2024-01-15T12:57:53;12.27;;;6.20;;
85131;SDS011;75493;51.772;19.464;2024-01-15T13:00:20;10.88;;;5.45;;
85131;SDS011;75493;51.772;19.464;2024-01-15T13:02:46;12.38;;;5.97;;
85131;SDS011;75493;51.772;19.464;2024-01-15T13:05:12;10.45;;;5.40;;
85131;SDS011;75493;51.772;19.464;2024-01-15T13:07:38;15.40;;;6.55;;
85131;SDS011;75493;51.772;19.464;2024-01-15T13:10:05;15.10;;;6.60;;
85131;SDS011;75493;51.772;19.464;2024-01-15T13:12:31;14.05;;;7.30;;
85131;SDS011;75493;51.772;19.464;2024-01-15T13:14:58;12.98;;;6.40;;
85131;SDS011;75493;51.772;19.464;2024-01-15T13:17:24;24.50;;;10.13;;
85131;SDS011;75493;51.772;19.464;2024-01-15T13:19:50;16.08;;;8.23;;
85131;SDS011;75493;51.772;19.464;2024-01-15T13:22:15;14.20;;;7.03;;
85131;SDS011;75493;51.772;19.464;2024-01-15T13:24:41;14.77;;;6.95;;
85131;SDS011;75493;51.772;19.464;2024-01-15T13:27:08;10.32;;;5.20;;
85131;SDS011;75493;51.772;19.464;2024-01-15T13:29:34;11.57;;;5.20;;
85131;SDS011;75493;51.772;19.464;2024-01-15T13:32:00;14.98;;;6.28;;
85131;SDS011;75493;51.772;19.464;2024-01-15T13:34:26;11.68;;;5.85;;
85131;SDS011;75493;51.772;19.464;2024-01-15T13:36:52;10.70;;;5.47;;
85131;SDS011;75493;51.772;19.464;2024-01-15T13:39:18;9.60;;;5.90;;
85131;SDS011;75493;51.772;19.464;2024-01-15T13:41:48;11.60;;;6.03;;
85131;SDS011;75493;51.772;19.464;2024-01-15T13:44:14;10.38;;;6.30;;
85131;SDS011;75493;51.772;19.464;2024-01-15T13:46:40;13.23;;;6.38;;
85131;SDS011;75493;51.772;19.464;2024-01-15T13:49:06;17.10;;;5.95;;
85131;SDS011;75493;51.772;19.464;2024-01-15T13:51:34;15.43;;;7.15;;
85131;SDS011;75493;51.772;19.464;2024-01-15T13:54:00;15.57;;;7.45;;
85131;SDS011;75493;51.772;19.464;2024-01-15T13:56:29;15.93;;;6.97;;
85131;SDS011;75493;51.772;19.464;2024-01-15T13:58:57;17.95;;;9.98;;
85131;SDS011;75493;51.772;19.464;2024-01-15T14:01:23;16.90;;;9.32;;
85131;SDS011;75493;51.772;19.464;2024-01-15T14:03:49;13.07;;;7.45;;
85131;SDS011;75493;51.772;19.464;2024-01-15T14:06:15;15.93;;;7.55;;
85131;SDS011;75493;51.772;19.464;2024-01-15T14:08:41;14.27;;;7.13;;
85131;SDS011;75493;51.772;19.464;2024-01-15T14:11:07;14.23;;;6.93;;
85131;SDS011;75493;51.772;19.464;2024-01-15T14:13:35;14.63;;;6.85;;
85131;SDS011;75493;51.772;19.464;2024-01-15T14:16:01;16.75;;;6.03;;
85131;SDS011;75493;51.772;19.464;2024-01-15T14:18:27;11.23;;;5.63;;
85131;SDS011;75493;51.772;19.464;2024-01-15T14:20:53;12.27;;;6.03;;
85131;SDS011;75493;51.772;19.464;2024-01-15T14:23:19;14.68;;;6.28;;
85131;SDS011;75493;51.772;19.464;2024-01-15T14:25:45;15.30;;;7.07;;
85131;SDS011;75493;51.772;19.464;2024-01-15T14:28:11;11.27;;;6.05;;
85131;SDS011;75493;51.772;19.464;2024-01-15T14:30:37;9.13;;;5.30;;